sensor_id;sensor_type;location;lat;lon;timestamp;temperature;humidity
909;DHT22;441;51.192;6.788;2024-02-21T00:00:51;21.80;56.30
909;DHT22;441;51.192;6.788;2024-02-21T00:03:18;21.80;56.30
909;DHT22;441;51.192;6.788;2024-02-21T00:05:45;21.80;56.30
909;DHT22;441;51.192;6.788;2024-02-21T00:08:13;21.80;56.30
909;DHT22;441;51.192;6.788;2024-02-21T00:10:39;21.80;56.40
909;DHT22;441;51.192;6.788;2024-02-21T00:13:06;21.80;56.40
909;DHT22;441;51.192;6.788;2024-02-21T00:15:33;21.80;56.30
909;DHT22;441;51.192;6.788;2024-02-21T00:18:00;21.80;56.40
909;DHT22;441;51.192;6.788;2024-02-21T00:20:26;21.80;56.40
909;DHT22;441;51.192;6.788;2024-02-21T00:22:53;21.70;56.30
909;DHT22;441;51.192;6.788;2024-02-21T00:25:21;21.80;56.40
909;DHT22;441;51.192;6.788;2024-02-21T00:27:48;21.70;56.30
909;DHT22;441;51.192;6.788;2024-02-21T00:30:15;21.70;56.40
909;DHT22;441;51.192;6.788;2024-02-21T00:32:41;21.70;56.40
909;DHT22;441;51.192;6.788;2024-02-21T00:35:08;21.70;56.40
909;DHT22;441;51.192;6.788;2024-02-21T00:37:35;21.70;56.40
909;DHT22;441;51.192;6.788;2024-02-21T00:40:02;21.70;56.50
909;DHT22;441;51.192;6.788;2024-02-21T00:42:30;21.70;56.50
909;DHT22;441;51.192;6.788;2024-02-21T00:44:58;21.70;56.50
909;DHT22;441;51.192;6.788;2024-02-21T00:47:24;21.70;56.50
909;DHT22;441;51.192;6.788;2024-02-21T00:49:51;21.70;56.60
909;DHT22;441;51.192;6.788;2024-02-21T00:52:18;21.70;56.60
909;DHT22;441;51.192;6.788;2024-02-21T00:54:44;21.70;56.60
909;DHT22;441;51.192;6.788;2024-02-21T00:57:11;21.60;56.50
909;DHT22;441;51.192;6.788;2024-02-21T00:59:39;21.60;56.60
909;DHT22;441;51.192;6.788;2024-02-21T01:02:07;21.60;56.60
909;DHT22;441;51.192;6.788;2024-02-21T01:04:34;21.60;56.60
909;DHT22;441;51.192;6.788;2024-02-21T01:07:02;21.60;56.60
909;DHT22;441;51.192;6.788;2024-02-21T01:09:28;21.60;56.60
909;DHT22;441;51.192;6.788;2024-02-21T01:11:55;21.60;56.70
909;DHT22;441;51.192;6.788;2024-02-21T01:14:22;21.60;56.70
909;DHT22;441;51.192;6.788;2024-02-21T01:16:50;21.60;56.70
909;DHT22;441;51.192;6.788;2024-02-21T01:19:17;21.50;56.70
909;DHT22;441;51.192;6.788;2024-02-21T01:21:43;21.50;56.70
909;DHT22;441;51.192;6.788;2024-02-21T01:24:10;21.50;56.70
909;DHT22;441;51.192;6.788;2024-02-21T01:26:37;21.50;56.70
909;DHT22;441;51.192;6.788;2024-02-21T01:29:03;21.50;56.80
909;DHT22;441;51.192;6.788;2024-02-21T01:31:30;21.50;56.80
909;DHT22;441;51.192;6.788;2024-02-21T01:33:58;21.50;56.80
909;DHT22;441;51.192;6.788;2024-02-21T01:36:25;21.50;56.90
909;DHT22;441;51.192;6.788;2024-02-21T01:38:52;21.50;56.90
909;DHT22;441;51.192;6.788;2024-02-21T01:41:19;21.50;56.90
909;DHT22;441;51.192;6.788;2024-02-21T01:43:46;21.50;56.90
909;DHT22;441;51.192;6.788;2024-02-21T01:46:12;21.50;57.00
909;DHT22;441;51.192;6.788;2024-02-21T01:48:39;21.40;56.90
909;DHT22;441;51.192;6.788;2024-02-21T01:51:08;21.50;57.00
909;DHT22;441;51.192;6.788;2024-02-21T01:53:37;21.50;57.00
909;DHT22;441;51.192;6.788;2024-02-21T01:56:05;21.50;57.00
909;DHT22;441;51.192;6.788;2024-02-21T01:58:35;21.50;57.10
909;DHT22;441;51.192;6.788;2024-02-21T02:01:03;21.40;57.00
909;DHT22;441;51.192;6.788;2024-02-21T02:03:30;21.40;57.10
909;DHT22;441;51.192;6.788;2024-02-21T02:05:57;21.40;57.10
909;DHT22;441;51.192;6.788;2024-02-21T02:08:25;21.40;57.10
909;DHT22;441;51.192;6.788;2024-02-21T02:10:52;21.40;57.10
909;DHT22;441;51.192;6.788;2024-02-21T02:13:19;21.40;57.10
909;DHT22;441;51.192;6.788;2024-02-21T02:15:47;21.40;57.10
909;DHT22;441;51.192;6.788;2024-02-21T02:18:15;21.40;57.10
909;DHT22;441;51.192;6.788;2024-02-21T02:20:42;21.40;57.10
909;DHT22;441;51.192;6.788;2024-02-21T02:23:10;21.40;57.10
909;DHT22;441;51.192;6.788;2024-02-21T02:25:39;21.40;57.20
909;DHT22;441;51.192;6.788;2024-02-21T02:28:06;21.40;57.20
909;DHT22;441;51.192;6.788;2024-02-21T02:30:33;21.40;57.20
909;DHT22;441;51.192;6.788;2024-02-21T02:33:01;21.40;57.20
909;DHT22;441;51.192;6.788;2024-02-21T02:35:28;21.40;57.20
909;DHT22;441;51.192;6.788;2024-02-21T02:37:55;21.40;57.20
909;DHT22;441;51.192;6.788;2024-02-21T02:40:22;21.40;57.30
909;DHT22;441;51.192;6.788;2024-02-21T02:42:50;21.30;57.20
909;DHT22;441;51.192;6.788;2024-02-21T02:45:17;21.30;57.20
909;DHT22;441;51.192;6.788;2024-02-21T02:47:44;21.30;57.20
909;DHT22;441;51.192;6.788;2024-02-21T02:50:12;21.30;57.30
909;DHT22;441;51.192;6.788;2024-02-21T02:52:39;21.30;57.30
909;DHT22;441;51.192;6.788;2024-02-21T02:55:07;21.30;57.30
909;DHT22;441;51.192;6.788;2024-02-21T02:57:33;21.30;57.30
909;DHT22;441;51.192;6.788;2024-02-21T03:00:01;21.30;57.30
909;DHT22;441;51.192;6.788;2024-02-21T03:02:29;21.30;57.30
909;DHT22;441;51.192;6.788;2024-02-21T03:04:56;21.30;57.30
909;DHT22;441;51.192;6.788;2024-02-21T03:07:25;21.30;57.30
909;DHT22;441;51.192;6.788;2024-02-21T03:09:51;21.30;57.40
909;DHT22;441;51.192;6.788;2024-02-21T03:12:19;21.30;57.40
909;DHT22;441;51.192;6.788;2024-02-21T03:14:50;21.30;57.40
909;DHT22;441;51.192;6.788;2024-02-21T03:17:18;21.30;57.40
909;DHT22;441;51.192;6.788;2024-02-21T03:19:44;21.30;57.40
909;DHT22;441;51.192;6.788;2024-02-21T03:22:11;21.30;57.50
909;DHT22;441;51.192;6.788;2024-02-21T03:24:38;21.30;57.50
909;DHT22;441;51.192;6.788;2024-02-21T03:27:04;21.20;57.40
909;DHT22;441;51.192;6.788;2024-02-21T03:29:31;21.20;57.40
909;DHT22;441;51.192;6.788;2024-02-21T03:31:58;21.20;57.40
909;DHT22;441;51.192;6.788;2024-02-21T03:34:26;21.20;57.40
909;DHT22;441;51.192;6.788;2024-02-21T03:36:52;21.20;57.40
909;DHT22;441;51.192;6.788;2024-02-21T03:39:19;21.20;57.50
909;DHT22;441;51.192;6.788;2024-02-21T03:41:46;21.20;57.50
909;DHT22;441;51.192;6.788;2024-02-21T03:44:13;21.20;57.50
909;DHT22;441;51.192;6.788;2024-02-21T03:46:40;21.20;57.50
909;DHT22;441;51.192;6.788;2024-02-21T03:49:06;21.20;57.60
909;DHT22;441;51.192;6.788;2024-02-21T03:51:34;21.20;57.60
909;DHT22;441;51.192;6.788;2024-02-21T03:54:01;21.20;57.60
909;DHT22;441;51.192;6.788;2024-02-21T03:56:28;21.20;57.60
909;DHT22;441;51.192;6.788;2024-02-21T03:58:55;21.20;57.60
909;DHT22;441;51.192;6.788;2024-02-21T04:01:22;21.20;57.60
909;DHT22;441;51.192;6.788;2024-02-21T04:03:48;21.20;57.60
909;DHT22;441;51.192;6.788;2024-02-21T04:06:15;21.20;57.60
909;DHT22;441;51.192;6.788;2024-02-21T04:08:43;21.20;57.60
909;DHT22;441;51.192;6.788;2024-02-21T04:11:10;21.20;57.70
909;DHT22;441;51.192;6.788;2024-02-21T04:13:36;21.20;57.60
909;DHT22;441;51.192;6.788;2024-02-21T04:16:04;21.20;57.70
909;DHT22;441;51.192;6.788;2024-02-21T04:18:31;21.20;57.70
909;DHT22;441;51.192;6.788;2024-02-21T04:20:58;21.20;57.70
909;DHT22;441;51.192;6.788;2024-02-21T04:23:24;21.20;57.70
909;DHT22;441;51.192;6.788;2024-02-21T04:25:52;21.10;57.60
909;DHT22;441;51.192;6.788;2024-02-21T04:28:19;21.20;57.70
909;DHT22;441;51.192;6.788;2024-02-21T04:30:46;21.20;57.70
909;DHT22;441;51.192;6.788;2024-02-21T04:33:12;21.20;57.70
909;DHT22;441;51.192;6.788;2024-02-21T04:35:39;21.20;57.70
909;DHT22;441;51.192;6.788;2024-02-21T04:38:06;21.20;57.70
909;DHT22;441;51.192;6.788;2024-02-21T04:40:32;21.20;57.70
909;DHT22;441;51.192;6.788;2024-02-21T04:43:00;21.20;57.70
909;DHT22;441;51.192;6.788;2024-02-21T04:45:27;21.20;57.70
909;DHT22;441;51.192;6.788;2024-02-21T04:47:54;21.20;57.80
909;DHT22;441;51.192;6.788;2024-02-21T04:50:20;21.20;57.90
909;DHT22;441;51.192;6.788;2024-02-21T04:52:47;21.10;58.00
909;DHT22;441;51.192;6.788;2024-02-21T04:55:14;21.10;58.10
909;DHT22;441;51.192;6.788;2024-02-21T04:57:41;21.20;58.20
909;DHT22;441;51.192;6.788;2024-02-21T05:00:10;21.20;58.30
909;DHT22;441;51.192;6.788;2024-02-21T05:02:37;21.10;58.20
909;DHT22;441;51.192;6.788;2024-02-21T05:05:04;21.10;58.20
909;DHT22;441;51.192;6.788;2024-02-21T05:07:30;21.10;58.30
909;DHT22;441;51.192;6.788;2024-02-21T05:09:57;21.10;58.30
909;DHT22;441;51.192;6.788;2024-02-21T05:12:24;21.10;58.40
909;DHT22;441;51.192;6.788;2024-02-21T05:14:51;21.10;58.50
909;DHT22;441;51.192;6.788;2024-02-21T05:17:19;21.10;58.50
909;DHT22;441;51.192;6.788;2024-02-21T05:19:45;21.10;58.50
909;DHT22;441;51.192;6.788;2024-02-21T05:22:12;21.10;58.50
909;DHT22;441;51.192;6.788;2024-02-21T05:24:39;21.10;58.50
909;DHT22;441;51.192;6.788;2024-02-21T05:27:06;21.10;58.50
909;DHT22;441;51.192;6.788;2024-02-21T05:29:33;21.10;58.60
909;DHT22;441;51.192;6.788;2024-02-21T05:32:00;21.10;58.50
909;DHT22;441;51.192;6.788;2024-02-21T05:34:29;21.20;58.60
909;DHT22;441;51.192;6.788;2024-02-21T05:36:55;21.10;58.60
909;DHT22;441;51.192;6.788;2024-02-21T05:39:23;21.10;58.70
909;DHT22;441;51.192;6.788;2024-02-21T05:41:49;21.20;58.80
909;DHT22;441;51.192;6.788;2024-02-21T05:44:16;21.10;58.70
909;DHT22;441;51.192;6.788;2024-02-21T05:46:43;21.20;58.80
909;DHT22;441;51.192;6.788;2024-02-21T05:49:10;21.20;58.80
909;DHT22;441;51.192;6.788;2024-02-21T05:51:38;21.10;58.80
909;DHT22;441;51.192;6.788;2024-02-21T05:54:05;21.20;58.80
909;DHT22;441;51.192;6.788;2024-02-21T05:56:32;21.10;59.30
909;DHT22;441;51.192;6.788;2024-02-21T05:58:59;21.20;58.80
909;DHT22;441;51.192;6.788;2024-02-21T06:01:26;21.20;58.80
909;DHT22;441;51.192;6.788;2024-02-21T06:03:53;21.10;58.70
909;DHT22;441;51.192;6.788;2024-02-21T06:06:20;21.20;59.30
909;DHT22;441;51.192;6.788;2024-02-21T06:08:48;21.20;58.70
909;DHT22;441;51.192;6.788;2024-02-21T06:11:15;21.20;58.70
909;DHT22;441;51.192;6.788;2024-02-21T06:13:42;21.20;58.70
909;DHT22;441;51.192;6.788;2024-02-21T06:16:08;21.20;58.80
909;DHT22;441;51.192;6.788;2024-02-21T06:18:36;21.20;58.90
909;DHT22;441;51.192;6.788;2024-02-21T06:21:03;21.20;59.00
909;DHT22;441;51.192;6.788;2024-02-21T06:23:30;21.20;59.20
909;DHT22;441;51.192;6.788;2024-02-21T06:25:58;21.20;59.20
909;DHT22;441;51.192;6.788;2024-02-21T06:28:25;21.20;59.60
909;DHT22;441;51.192;6.788;2024-02-21T06:30:52;21.20;60.70
909;DHT22;441;51.192;6.788;2024-02-21T06:33:19;21.20;61.50
909;DHT22;441;51.192;6.788;2024-02-21T06:35:48;21.20;61.90
909;DHT22;441;51.192;6.788;2024-02-21T06:38:17;21.20;61.80
909;DHT22;441;51.192;6.788;2024-02-21T06:40:44;21.20;61.70
909;DHT22;441;51.192;6.788;2024-02-21T06:43:17;21.20;61.50
909;DHT22;441;51.192;6.788;2024-02-21T06:45:43;21.20;61.30
909;DHT22;441;51.192;6.788;2024-02-21T06:48:13;21.20;61.10
909;DHT22;441;51.192;6.788;2024-02-21T06:50:39;21.20;60.90
909;DHT22;441;51.192;6.788;2024-02-21T06:53:06;21.20;60.70
909;DHT22;441;51.192;6.788;2024-02-21T06:55:33;21.20;60.50
909;DHT22;441;51.192;6.788;2024-02-21T06:57:59;21.30;60.40
909;DHT22;441;51.192;6.788;2024-02-21T07:00:28;21.30;60.20
909;DHT22;441;51.192;6.788;2024-02-21T07:02:55;21.30;60.10
909;DHT22;441;51.192;6.788;2024-02-21T07:05:22;21.30;59.90
909;DHT22;441;51.192;6.788;2024-02-21T07:07:48;21.30;59.80
909;DHT22;441;51.192;6.788;2024-02-21T07:10:15;21.30;59.70
909;DHT22;441;51.192;6.788;2024-02-21T07:12:42;21.30;59.60
909;DHT22;441;51.192;6.788;2024-02-21T07:15:09;21.30;59.50
909;DHT22;441;51.192;6.788;2024-02-21T07:17:37;21.30;59.40
909;DHT22;441;51.192;6.788;2024-02-21T07:20:04;21.30;59.30
909;DHT22;441;51.192;6.788;2024-02-21T07:22:31;21.30;59.20
909;DHT22;441;51.192;6.788;2024-02-21T07:24:57;21.30;59.10
909;DHT22;441;51.192;6.788;2024-02-21T07:27:24;21.30;59.00
909;DHT22;441;51.192;6.788;2024-02-21T07:29:53;21.30;58.90
909;DHT22;441;51.192;6.788;2024-02-21T07:32:20;21.30;58.80
909;DHT22;441;51.192;6.788;2024-02-21T07:34:48;21.40;58.80
909;DHT22;441;51.192;6.788;2024-02-21T07:37:14;21.40;58.70
909;DHT22;441;51.192;6.788;2024-02-21T07:39:41;21.40;58.60
909;DHT22;441;51.192;6.788;2024-02-21T07:42:08;21.40;58.50
909;DHT22;441;51.192;6.788;2024-02-21T07:44:34;21.40;58.40
909;DHT22;441;51.192;6.788;2024-02-21T07:47:01;21.40;58.40
909;DHT22;441;51.192;6.788;2024-02-21T07:49:28;21.40;58.30
909;DHT22;441;51.192;6.788;2024-02-21T07:51:56;21.40;58.20
909;DHT22;441;51.192;6.788;2024-02-21T07:54:22;21.40;58.10
909;DHT22;441;51.192;6.788;2024-02-21T07:56:49;21.40;58.00
909;DHT22;441;51.192;6.788;2024-02-21T07:59:16;21.40;57.90
909;DHT22;441;51.192;6.788;2024-02-21T08:01:43;21.40;57.90
909;DHT22;441;51.192;6.788;2024-02-21T08:04:11;21.40;57.80
909;DHT22;441;51.192;6.788;2024-02-21T08:06:37;21.40;57.70
909;DHT22;441;51.192;6.788;2024-02-21T08:09:05;21.40;57.70
909;DHT22;441;51.192;6.788;2024-02-21T08:11:32;21.40;57.60
909;DHT22;441;51.192;6.788;2024-02-21T08:13:59;21.50;57.60
909;DHT22;441;51.192;6.788;2024-02-21T08:16:26;21.40;57.50
909;DHT22;441;51.192;6.788;2024-02-21T08:18:53;21.40;58.00
909;DHT22;441;51.192;6.788;2024-02-21T08:21:20;21.50;57.40
909;DHT22;441;51.192;6.788;2024-02-21T08:23:46;21.40;57.30
909;DHT22;441;51.192;6.788;2024-02-21T08:26:18;21.50;57.30
909;DHT22;441;51.192;6.788;2024-02-21T08:28:44;21.40;57.20
909;DHT22;441;51.192;6.788;2024-02-21T08:31:18;21.50;57.30
909;DHT22;441;51.192;6.788;2024-02-21T08:33:45;21.40;57.10
909;DHT22;441;51.192;6.788;2024-02-21T08:36:17;21.50;57.10
909;DHT22;441;51.192;6.788;2024-02-21T08:38:44;21.40;57.00
909;DHT22;441;51.192;6.788;2024-02-21T08:41:11;21.50;57.60
909;DHT22;441;51.192;6.788;2024-02-21T08:43:39;21.50;57.00
909;DHT22;441;51.192;6.788;2024-02-21T08:46:06;21.50;57.00
909;DHT22;441;51.192;6.788;2024-02-21T08:48:32;21.50;57.00
909;DHT22;441;51.192;6.788;2024-02-21T08:50:59;21.50;56.90
909;DHT22;441;51.192;6.788;2024-02-21T08:53:26;21.50;56.90
909;DHT22;441;51.192;6.788;2024-02-21T08:55:52;21.50;56.80
909;DHT22;441;51.192;6.788;2024-02-21T08:58:19;21.50;56.80
909;DHT22;441;51.192;6.788;2024-02-21T09:00:50;21.50;56.80
909;DHT22;441;51.192;6.788;2024-02-21T09:03:17;21.50;57.30
909;DHT22;441;51.192;6.788;2024-02-21T09:05:45;21.50;56.80
909;DHT22;441;51.192;6.788;2024-02-21T09:08:12;21.50;56.70
909;DHT22;441;51.192;6.788;2024-02-21T09:10:39;21.50;56.70
909;DHT22;441;51.192;6.788;2024-02-21T09:13:06;21.50;56.70
909;DHT22;441;51.192;6.788;2024-02-21T09:15:34;21.50;56.70
909;DHT22;441;51.192;6.788;2024-02-21T09:18:02;21.50;56.60
909;DHT22;441;51.192;6.788;2024-02-21T09:20:29;21.50;56.60
909;DHT22;441;51.192;6.788;2024-02-21T09:22:56;21.50;56.50
909;DHT22;441;51.192;6.788;2024-02-21T09:25:23;21.50;56.50
909;DHT22;441;51.192;6.788;2024-02-21T09:27:50;21.50;56.50
909;DHT22;441;51.192;6.788;2024-02-21T09:30:17;21.60;56.50
909;DHT22;441;51.192;6.788;2024-02-21T09:32:44;21.50;56.40
909;DHT22;441;51.192;6.788;2024-02-21T09:35:12;21.50;56.40
909;DHT22;441;51.192;6.788;2024-02-21T09:37:39;21.50;56.30
909;DHT22;441;51.192;6.788;2024-02-21T09:40:07;21.60;56.40
909;DHT22;441;51.192;6.788;2024-02-21T09:42:37;21.60;56.40
909;DHT22;441;51.192;6.788;2024-02-21T09:45:08;21.50;56.20
909;DHT22;441;51.192;6.788;2024-02-21T09:47:47;21.50;56.20
909;DHT22;441;51.192;6.788;2024-02-21T09:50:19;21.50;56.20
909;DHT22;441;51.192;6.788;2024-02-21T09:52:48;21.50;56.10
909;DHT22;441;51.192;6.788;2024-02-21T09:55:16;21.60;56.20
909;DHT22;441;51.192;6.788;2024-02-21T09:57:44;21.60;56.20
909;DHT22;441;51.192;6.788;2024-02-21T10:00:12;21.60;56.10
909;DHT22;441;51.192;6.788;2024-02-21T10:02:47;21.60;56.10
909;DHT22;441;51.192;6.788;2024-02-21T10:05:13;21.60;56.10
909;DHT22;441;51.192;6.788;2024-02-21T10:07:41;21.60;56.10
909;DHT22;441;51.192;6.788;2024-02-21T10:10:09;21.60;56.10
909;DHT22;441;51.192;6.788;2024-02-21T10:12:36;21.60;56.10
909;DHT22;441;51.192;6.788;2024-02-21T10:15:03;21.60;56.10
909;DHT22;441;51.192;6.788;2024-02-21T10:17:30;21.60;56.00
909;DHT22;441;51.192;6.788;2024-02-21T10:20:07;21.60;56.00
909;DHT22;441;51.192;6.788;2024-02-21T10:22:34;21.60;56.00
909;DHT22;441;51.192;6.788;2024-02-21T10:25:08;21.60;55.90
909;DHT22;441;51.192;6.788;2024-02-21T10:27:35;21.60;55.90
909;DHT22;441;51.192;6.788;2024-02-21T10:30:03;21.60;55.90
909;DHT22;441;51.192;6.788;2024-02-21T10:32:30;21.60;55.90
909;DHT22;441;51.192;6.788;2024-02-21T10:35:01;21.60;55.80
909;DHT22;441;51.192;6.788;2024-02-21T10:37:28;21.60;55.80
909;DHT22;441;51.192;6.788;2024-02-21T10:39:55;21.60;55.80
909;DHT22;441;51.192;6.788;2024-02-21T10:42:29;21.60;55.80
909;DHT22;441;51.192;6.788;2024-02-21T10:45:00;21.60;55.70
909;DHT22;441;51.192;6.788;2024-02-21T10:47:31;21.60;55.70
909;DHT22;441;51.192;6.788;2024-02-21T10:50:03;21.60;55.70
909;DHT22;441;51.192;6.788;2024-02-21T10:52:40;21.60;55.70
909;DHT22;441;51.192;6.788;2024-02-21T10:55:19;21.60;55.70
909;DHT22;441;51.192;6.788;2024-02-21T10:57:50;21.60;55.60
909;DHT22;441;51.192;6.788;2024-02-21T11:00:18;21.60;55.60
909;DHT22;441;51.192;6.788;2024-02-21T11:02:45;21.60;55.60
909;DHT22;441;51.192;6.788;2024-02-21T11:05:13;21.60;55.60
909;DHT22;441;51.192;6.788;2024-02-21T11:07:40;21.70;55.70
909;DHT22;441;51.192;6.788;2024-02-21T11:10:20;21.60;55.60
909;DHT22;441;51.192;6.788;2024-02-21T11:12:52;21.70;55.70
909;DHT22;441;51.192;6.788;2024-02-21T11:15:19;21.60;55.60
909;DHT22;441;51.192;6.788;2024-02-21T11:17:55;21.60;55.60
909;DHT22;441;51.192;6.788;2024-02-21T11:20:32;21.60;55.60
909;DHT22;441;51.192;6.788;2024-02-21T11:22:59;21.70;55.60
909;DHT22;441;51.192;6.788;2024-02-21T11:25:26;21.70;55.60
909;DHT22;441;51.192;6.788;2024-02-21T11:28:01;21.70;55.60
909;DHT22;441;51.192;6.788;2024-02-21T11:30:29;21.60;55.50
909;DHT22;441;51.192;6.788;2024-02-21T11:33:00;21.70;55.60
909;DHT22;441;51.192;6.788;2024-02-21T11:35:31;21.70;55.60
909;DHT22;441;51.192;6.788;2024-02-21T11:38:08;21.70;55.60
909;DHT22;441;51.192;6.788;2024-02-21T11:40:38;21.70;55.60
909;DHT22;441;51.192;6.788;2024-02-21T11:43:06;21.60;55.50
909;DHT22;441;51.192;6.788;2024-02-21T11:45:33;21.70;55.60
909;DHT22;441;51.192;6.788;2024-02-21T11:47:59;21.70;55.60
909;DHT22;441;51.192;6.788;2024-02-21T11:50:29;21.70;55.60
909;DHT22;441;51.192;6.788;2024-02-21T11:52:55;21.70;55.50
909;DHT22;441;51.192;6.788;2024-02-21T11:55:22;21.70;55.50
909;DHT22;441;51.192;6.788;2024-02-21T11:57:49;21.70;55.50
909;DHT22;441;51.192;6.788;2024-02-21T12:00:19;21.70;55.50
909;DHT22;441;51.192;6.788;2024-02-21T12:02:46;21.70;55.50
909;DHT22;441;51.192;6.788;2024-02-21T12:05:14;21.70;55.60
909;DHT22;441;51.192;6.788;2024-02-21T12:07:41;21.70;55.50
909;DHT22;441;51.192;6.788;2024-02-21T12:10:08;21.70;55.40
909;DHT22;441;51.192;6.788;2024-02-21T12:12:36;21.70;55.40
909;DHT22;441;51.192;6.788;2024-02-21T12:15:03;21.70;55.50
909;DHT22;441;51.192;6.788;2024-02-21T12:17:32;21.70;55.40
909;DHT22;441;51.192;6.788;2024-02-21T12:19:59;21.70;55.40
909;DHT22;441;51.192;6.788;2024-02-21T12:22:26;21.70;55.50
909;DHT22;441;51.192;6.788;2024-02-21T12:24:53;21.70;55.40
909;DHT22;441;51.192;6.788;2024-02-21T12:27:20;21.70;55.40
909;DHT22;441;51.192;6.788;2024-02-21T12:29:47;21.70;55.40
909;DHT22;441;51.192;6.788;2024-02-21T12:32:14;21.70;55.40
909;DHT22;441;51.192;6.788;2024-02-21T12:34:42;21.70;55.40
909;DHT22;441;51.192;6.788;2024-02-21T12:37:10;21.70;55.50
909;DHT22;441;51.192;6.788;2024-02-21T12:39:37;21.70;55.40
909;DHT22;441;51.192;6.788;2024-02-21T12:42:04;21.70;55.40
909;DHT22;441;51.192;6.788;2024-02-21T12:44:31;21.70;55.50
909;DHT22;441;51.192;6.788;2024-02-21T12:46:59;21.70;55.40
909;DHT22;441;51.192;6.788;2024-02-21T12:49:26;21.70;55.40
909;DHT22;441;51.192;6.788;2024-02-21T12:51:56;21.70;55.40
909;DHT22;441;51.192;6.788;2024-02-21T12:54:22;21.70;55.40
909;DHT22;441;51.192;6.788;2024-02-21T12:56:49;21.80;55.50
909;DHT22;441;51.192;6.788;2024-02-21T12:59:16;21.70;55.40
909;DHT22;441;51.192;6.788;2024-02-21T13:01:43;21.80;55.50
909;DHT22;441;51.192;6.788;2024-02-21T13:04:09;21.70;55.40
909;DHT22;441;51.192;6.788;2024-02-21T13:06:37;21.80;55.50
909;DHT22;441;51.192;6.788;2024-02-21T13:09:05;21.80;55.50
909;DHT22;441;51.192;6.788;2024-02-21T13:11:34;21.80;55.50
909;DHT22;441;51.192;6.788;2024-02-21T13:14:01;21.80;55.50
909;DHT22;441;51.192;6.788;2024-02-21T13:16:27;21.80;55.50
909;DHT22;441;51.192;6.788;2024-02-21T13:18:54;21.80;55.40
909;DHT22;441;51.192;6.788;2024-02-21T13:21:21;21.80;55.40
909;DHT22;441;51.192;6.788;2024-02-21T13:23:47;21.80;55.50
909;DHT22;441;51.192;6.788;2024-02-21T13:26:16;21.80;55.40
909;DHT22;441;51.192;6.788;2024-02-21T13:28:43;21.80;55.40
909;DHT22;441;51.192;6.788;2024-02-21T13:31:10;21.80;55.50
909;DHT22;441;51.192;6.788;2024-02-21T13:33:37;21.80;55.40
909;DHT22;441;51.192;6.788;2024-02-21T13:36:04;21.80;55.40
909;DHT22;441;51.192;6.788;2024-02-21T13:38:31;21.80;55.40
909;DHT22;441;51.192;6.788;2024-02-21T13:40:57;21.80;55.40
909;DHT22;441;51.192;6.788;2024-02-21T13:43:27;21.80;55.40
909;DHT22;441;51.192;6.788;2024-02-21T13:45:56;21.80;55.40
909;DHT22;441;51.192;6.788;2024-02-21T13:48:23;21.80;55.40
909;DHT22;441;51.192;6.788;2024-02-21T13:50:50;21.80;55.40
909;DHT22;441;51.192;6.788;2024-02-21T13:53:17;21.80;55.40
909;DHT22;441;51.192;6.788;2024-02-21T13:55:46;21.80;55.40
909;DHT22;441;51.192;6.788;2024-02-21T13:58:13;21.80;55.30
909;DHT22;441;51.192;6.788;2024-02-21T14:00:41;21.80;55.40
909;DHT22;441;51.192;6.788;2024-02-21T14:03:07;21.80;55.30
909;DHT22;441;51.192;6.788;2024-02-21T14:05:35;21.80;55.30
909;DHT22;441;51.192;6.788;2024-02-21T14:08:02;21.80;55.30
909;DHT22;441;51.192;6.788;2024-02-21T14:10:28;21.80;55.30
909;DHT22;441;51.192;6.788;2024-02-21T14:12:55;21.80;55.80
909;DHT22;441;51.192;6.788;2024-02-21T14:15:22;21.80;55.30
909;DHT22;441;51.192;6.788;2024-02-21T14:17:51;21.80;55.30
909;DHT22;441;51.192;6.788;2024-02-21T14:20:18;21.80;55.30
909;DHT22;441;51.192;6.788;2024-02-21T14:22:45;21.80;55.20
909;DHT22;441;51.192;6.788;2024-02-21T14:25:11;21.80;55.30
909;DHT22;441;51.192;6.788;2024-02-21T14:27:41;21.80;55.40
909;DHT22;441;51.192;6.788;2024-02-21T14:30:09;21.80;55.20
909;DHT22;441;51.192;6.788;2024-02-21T14:32:36;21.80;55.20
909;DHT22;441;51.192;6.788;2024-02-21T14:35:05;21.80;55.20
909;DHT22;441;51.192;6.788;2024-02-21T14:37:32;21.80;55.20
909;DHT22;441;51.192;6.788;2024-02-21T14:39:58;21.80;55.20
909;DHT22;441;51.192;6.788;2024-02-21T14:42:25;21.80;55.20
909;DHT22;441;51.192;6.788;2024-02-21T14:44:52;21.80;55.20
909;DHT22;441;51.192;6.788;2024-02-21T14:47:19;21.90;55.30
909;DHT22;441;51.192;6.788;2024-02-21T14:49:45;21.80;55.20
909;DHT22;441;51.192;6.788;2024-02-21T14:52:13;21.90;55.30
909;DHT22;441;51.192;6.788;2024-02-21T14:54:42;21.90;55.30
909;DHT22;441;51.192;6.788;2024-02-21T14:57:14;21.90;55.30
909;DHT22;441;51.192;6.788;2024-02-21T14:59:41;21.90;55.30
909;DHT22;441;51.192;6.788;2024-02-21T15:02:07;21.90;55.30
909;DHT22;441;51.192;6.788;2024-02-21T15:04:35;21.90;55.20
909;DHT22;441;51.192;6.788;2024-02-21T15:07:02;21.90;55.30
909;DHT22;441;51.192;6.788;2024-02-21T15:09:30;21.80;56.40
909;DHT22;441;51.192;6.788;2024-02-21T15:11:58;21.90;56.80
909;DHT22;441;51.192;6.788;2024-02-21T15:14:24;22.00;56.80
909;DHT22;441;51.192;6.788;2024-02-21T15:16:51;22.00;56.90
909;DHT22;441;51.192;6.788;2024-02-21T15:19:18;22.00;57.10
909;DHT22;441;51.192;6.788;2024-02-21T15:21:45;22.00;57.10
909;DHT22;441;51.192;6.788;2024-02-21T15:24:12;22.00;57.20
909;DHT22;441;51.192;6.788;2024-02-21T15:26:40;22.00;57.30
909;DHT22;441;51.192;6.788;2024-02-21T15:29:06;22.00;57.30
909;DHT22;441;51.192;6.788;2024-02-21T15:31:33;22.10;57.40
909;DHT22;441;51.192;6.788;2024-02-21T15:34:00;22.00;57.30
909;DHT22;441;51.192;6.788;2024-02-21T15:36:27;22.10;57.30
909;DHT22;441;51.192;6.788;2024-02-21T15:38:54;22.00;57.30
909;DHT22;441;51.192;6.788;2024-02-21T15:41:21;22.00;57.30
909;DHT22;441;51.192;6.788;2024-02-21T15:43:49;22.00;57.40
909;DHT22;441;51.192;6.788;2024-02-21T15:46:16;22.10;57.50
909;DHT22;441;51.192;6.788;2024-02-21T15:48:43;22.10;58.20
909;DHT22;441;51.192;6.788;2024-02-21T15:51:10;22.10;57.80
909;DHT22;441;51.192;6.788;2024-02-21T15:53:36;22.10;57.60
909;DHT22;441;51.192;6.788;2024-02-21T15:56:04;22.10;57.60
909;DHT22;441;51.192;6.788;2024-02-21T15:58:31;22.10;57.50
909;DHT22;441;51.192;6.788;2024-02-21T16:00:59;22.20;57.50
909;DHT22;441;51.192;6.788;2024-02-21T16:03:26;22.10;57.30
909;DHT22;441;51.192;6.788;2024-02-21T16:05:52;22.10;56.90
909;DHT22;441;51.192;6.788;2024-02-21T16:08:19;22.10;55.90
909;DHT22;441;51.192;6.788;2024-02-21T16:10:46;22.10;55.50
909;DHT22;441;51.192;6.788;2024-02-21T16:13:13;22.10;56.10
909;DHT22;441;51.192;6.788;2024-02-21T16:15:40;22.10;56.50
909;DHT22;441;51.192;6.788;2024-02-21T16:18:09;22.20;56.70
909;DHT22;441;51.192;6.788;2024-02-21T16:20:35;22.20;56.70
909;DHT22;441;51.192;6.788;2024-02-21T16:23:02;22.10;56.70
909;DHT22;441;51.192;6.788;2024-02-21T16:25:29;22.20;56.80
909;DHT22;441;51.192;6.788;2024-02-21T16:27:56;22.20;56.80
909;DHT22;441;51.192;6.788;2024-02-21T16:30:23;22.20;56.80
909;DHT22;441;51.192;6.788;2024-02-21T16:32:50;22.20;56.70
909;DHT22;441;51.192;6.788;2024-02-21T16:35:19;22.20;56.80